sensor_id;sensor_type;location;lat;lon;timestamp;P1;durP1;ratioP1;P2;durP2;ratioP2
74375;SDS011;62812;55.188;61.302;2023-04-06T10:40:46;17.42;;;2.65;;
74375;SDS011;62812;55.188;61.302;2023-04-06T10:43:18;11.00;;;2.80;;
74375;SDS011;62812;55.188;61.302;2023-04-06T10:45:54;11.43;;;3.20;;
74375;SDS011;62812;55.188;61.302;2023-04-06T10:48:23;16.10;;;3.00;;
74375;SDS011;62812;55.188;61.302;2023-04-06T10:50:51;9.02;;;2.20;;
74375;SDS011;62812;55.188;61.302;2023-04-06T10:53:22;9.93;;;2.42;;
74375;SDS011;62812;55.188;61.302;2023-04-06T10:58:46;8.15;;;2.03;;
74375;SDS011;62812;55.188;61.302;2023-04-06T11:04:59;20.90;;;2.67;;
74375;SDS011;62812;55.188;61.302;2023-04-06T11:07:29;16.15;;;3.10;;
74375;SDS011;62812;55.188;61.302;2023-04-06T11:09:57;21.25;;;2.88;;
74375;SDS011;62812;55.188;61.302;2023-04-06T11:12:31;11.98;;;2.83;;
74375;SDS011;62812;55.188;61.302;2023-04-06T11:15:01;16.05;;;2.75;;
74375;SDS011;62812;55.188;61.302;2023-04-06T11:17:33;14.50;;;2.83;;
74375;SDS011;62812;55.188;61.302;2023-04-06T11:20:09;11.60;;;2.65;;
74375;SDS011;62812;55.188;61.302;2023-04-06T11:22:51;18.45;;;2.95;;
74375;SDS011;62812;55.188;61.302;2023-04-06T11:25:18;11.93;;;2.55;;
74375;SDS011;62812;55.188;61.302;2023-04-06T11:27:47;14.68;;;3.20;;
74375;SDS011;62812;55.188;61.302;2023-04-06T11:30:14;15.48;;;2.58;;
74375;SDS011;62812;55.188;61.302;2023-04-06T11:32:42;12.18;;;2.78;;
74375;SDS011;62812;55.188;61.302;2023-04-06T11:35:19;19.65;;;4.05;;
74375;SDS011;62812;55.188;61.302;2023-04-06T11:37:48;14.30;;;3.15;;
74375;SDS011;62812;55.188;61.302;2023-04-06T11:40:16;15.00;;;3.22;;
74375;SDS011;62812;55.188;61.302;2023-04-06T11:42:53;13.02;;;3.95;;
74375;SDS011;62812;55.188;61.302;2023-04-06T11:45:21;16.73;;;4.55;;
74375;SDS011;62812;55.188;61.302;2023-04-06T11:50:43;21.05;;;7.82;;
74375;SDS011;62812;55.188;61.302;2023-04-06T11:53:21;27.75;;;8.43;;
74375;SDS011;62812;55.188;61.302;2023-04-06T11:55:48;25.55;;;8.25;;
74375;SDS011;62812;55.188;61.302;2023-04-06T12:01:17;18.58;;;7.15;;
74375;SDS011;62812;55.188;61.302;2023-04-06T12:03:45;16.27;;;7.95;;
74375;SDS011;62812;55.188;61.302;2023-04-06T12:06:14;17.52;;;7.10;;
74375;SDS011;62812;55.188;61.302;2023-04-06T12:08:42;27.67;;;9.38;;
74375;SDS011;62812;55.188;61.302;2023-04-06T12:11:11;22.60;;;8.95;;
74375;SDS011;62812;55.188;61.302;2023-04-06T12:13:38;26.02;;;10.77;;
74375;SDS011;62812;55.188;61.302;2023-04-06T12:16:07;28.08;;;11.15;;
74375;SDS011;62812;55.188;61.302;2023-04-06T12:18:38;18.08;;;8.40;;
74375;SDS011;62812;55.188;61.302;2023-04-06T12:21:09;22.80;;;7.80;;
74375;SDS011;62812;55.188;61.302;2023-04-06T12:23:37;20.77;;;8.00;;
74375;SDS011;62812;55.188;61.302;2023-04-06T12:26:08;17.83;;;7.07;;
74375;SDS011;62812;55.188;61.302;2023-04-06T12:28:36;12.93;;;6.07;;
74375;SDS011;62812;55.188;61.302;2023-04-06T12:31:06;17.50;;;8.07;;
74375;SDS011;62812;55.188;61.302;2023-04-06T12:33:33;23.83;;;7.60;;
74375;SDS011;62812;55.188;61.302;2023-04-06T12:36:10;17.83;;;7.30;;
74375;SDS011;62812;55.188;61.302;2023-04-06T12:38:39;15.23;;;5.13;;
74375;SDS011;62812;55.188;61.302;2023-04-06T12:41:07;18.38;;;5.88;;
74375;SDS011;62812;55.188;61.302;2023-04-06T12:43:34;17.95;;;5.38;;
74375;SDS011;62812;55.188;61.302;2023-04-06T12:46:01;26.75;;;6.45;;
74375;SDS011;62812;55.188;61.302;2023-04-06T12:48:28;17.75;;;5.72;;
74375;SDS011;62812;55.188;61.302;2023-04-06T12:56:49;15.15;;;5.65;;
74375;SDS011;62812;55.188;61.302;2023-04-06T12:59:17;17.83;;;5.75;;
74375;SDS011;62812;55.188;61.302;2023-04-06T13:01:45;14.10;;;4.85;;
74375;SDS011;62812;55.188;61.302;2023-04-06T13:04:18;16.35;;;4.45;;
74375;SDS011;62812;55.188;61.302;2023-04-06T13:06:46;17.88;;;4.28;;
74375;SDS011;62812;55.188;61.302;2023-04-06T13:09:15;14.23;;;3.97;;
74375;SDS011;62812;55.188;61.302;2023-04-06T13:11:42;12.90;;;3.05;;
74375;SDS011;62812;55.188;61.302;2023-04-06T13:14:11;16.52;;;3.58;;
74375;SDS011;62812;55.188;61.302;2023-04-06T13:16:39;14.90;;;3.30;;
74375;SDS011;62812;55.188;61.302;2023-04-06T13:19:12;9.18;;;2.55;;
74375;SDS011;62812;55.188;61.302;2023-04-06T13:21:44;16.75;;;4.13;;
74375;SDS011;62812;55.188;61.302;2023-04-06T13:24:20;17.42;;;3.70;;
74375;SDS011;62812;55.188;61.302;2023-04-06T13:27:01;21.00;;;4.20;;
74375;SDS011;62812;55.188;61.302;2023-04-06T13:29:30;17.75;;;3.85;;
74375;SDS011;62812;55.188;61.302;2023-04-06T13:32:00;20.33;;;4.60;;
74375;SDS011;62812;55.188;61.302;2023-04-06T13:37:03;19.75;;;4.50;;
74375;SDS011;62812;55.188;61.302;2023-04-06T13:39:40;16.13;;;4.60;;
74375;SDS011;62812;55.188;61.302;2023-04-06T13:42:12;13.35;;;4.10;;
74375;SDS011;62812;55.188;61.302;2023-04-06T13:44:52;23.15;;;4.65;;
74375;SDS011;62812;55.188;61.302;2023-04-06T13:47:28;16.67;;;4.65;;
74375;SDS011;62812;55.188;61.302;2023-04-06T13:49:57;9.38;;;3.47;;
74375;SDS011;62812;55.188;61.302;2023-04-06T13:52:27;8.45;;;3.33;;
74375;SDS011;62812;55.188;61.302;2023-04-06T14:04:48;15.77;;;3.90;;
74375;SDS011;62812;55.188;61.302;2023-04-06T14:07:29;11.65;;;3.67;;
74375;SDS011;62812;55.188;61.302;2023-04-06T14:09:57;13.45;;;4.22;;
74375;SDS011;62812;55.188;61.302;2023-04-06T14:12:24;12.25;;;4.88;;
74375;SDS011;62812;55.188;61.302;2023-04-06T14:14:58;8.73;;;3.80;;
74375;SDS011;62812;55.188;61.302;2023-04-06T14:27:08;11.45;;;3.55;;
74375;SDS011;62812;55.188;61.302;2023-04-06T14:29:39;23.63;;;4.68;;
74375;SDS011;62812;55.188;61.302;2023-04-06T14:32:08;11.27;;;3.88;;
74375;SDS011;62812;55.188;61.302;2023-04-06T14:34:48;13.43;;;4.40;;
74375;SDS011;62812;55.188;61.302;2023-04-06T14:37:25;10.63;;;3.70;;
74375;SDS011;62812;55.188;61.302;2023-04-06T14:39:54;13.80;;;4.57;;
74375;SDS011;62812;55.188;61.302;2023-04-06T14:42:30;8.95;;;3.80;;
74375;SDS011;62812;55.188;61.302;2023-04-06T14:44:57;43.42;;;6.80;;
74375;SDS011;62812;55.188;61.302;2023-04-06T14:47:27;9.88;;;4.97;;
74375;SDS011;62812;55.188;61.302;2023-04-06T14:49:55;10.45;;;5.28;;
74375;SDS011;62812;55.188;61.302;2023-04-06T14:52:30;10.00;;;4.88;;
74375;SDS011;62812;55.188;61.302;2023-04-06T14:55:00;8.57;;;3.72;;
74375;SDS011;62812;55.188;61.302;2023-04-06T15:13:28;15.25;;;5.43;;
74375;SDS011;62812;55.188;61.302;2023-04-06T15:19:05;9.73;;;3.78;;
74375;SDS011;62812;55.188;61.302;2023-04-06T15:42:29;12.00;;;3.22;;
74375;SDS011;62812;55.188;61.302;2023-04-06T15:45:21;18.60;;;4.05;;
74375;SDS011;62812;55.188;61.302;2023-04-06T15:51:43;13.73;;;2.20;;
74375;SDS011;62812;55.188;61.302;2023-04-06T15:54:33;9.80;;;2.20;;
74375;SDS011;62812;55.188;61.302;2023-04-06T16:00:25;13.98;;;2.20;;
74375;SDS011;62812;55.188;61.302;2023-04-06T16:44:12;3.78;;;1.10;;
74375;SDS011;62812;55.188;61.302;2023-04-06T16:47:31;8.95;;;1.50;;
74375;SDS011;62812;55.188;61.302;2023-04-06T16:50:05;6.93;;;1.45;;
74375;SDS011;62812;55.188;61.302;2023-04-06T16:52:35;5.70;;;1.48;;
74375;SDS011;62812;55.188;61.302;2023-04-06T16:58:30;6.95;;;1.67;;
74375;SDS011;62812;55.188;61.302;2023-04-06T17:05:01;10.38;;;1.75;;
74375;SDS011;62812;55.188;61.302;2023-04-06T17:15:04;5.60;;;1.63;;
74375;SDS011;62812;55.188;61.302;2023-04-06T17:17:47;11.55;;;2.70;;
74375;SDS011;62812;55.188;61.302;2023-04-06T17:20:38;6.10;;;1.30;;
74375;SDS011;62812;55.188;61.302;2023-04-06T17:23:05;5.03;;;1.00;;
74375;SDS011;62812;55.188;61.302;2023-04-06T17:25:48;3.40;;;0.90;;
74375;SDS011;62812;55.188;61.302;2023-04-06T17:32:33;1.88;;;0.70;;
74375;SDS011;62812;55.188;61.302;2023-04-06T17:35:05;2.88;;;0.73;;
74375;SDS011;62812;55.188;61.302;2023-04-06T17:37:33;7.65;;;1.00;;
74375;SDS011;62812;55.188;61.302;2023-04-06T17:40:11;5.63;;;1.00;;
74375;SDS011;62812;55.188;61.302;2023-04-06T17:44:07;5.07;;;0.73;;
74375;SDS011;62812;55.188;61.302;2023-04-06T17:46:44;3.67;;;0.98;;
74375;SDS011;62812;55.188;61.302;2023-04-06T17:49:23;4.97;;;0.70;;
74375;SDS011;62812;55.188;61.302;2023-04-06T17:56:39;4.03;;;0.80;;
74375;SDS011;62812;55.188;61.302;2023-04-06T17:59:08;3.30;;;0.60;;
74375;SDS011;62812;55.188;61.302;2023-04-06T18:01:38;1.75;;;0.70;;
74375;SDS011;62812;55.188;61.302;2023-04-06T18:08:30;6.05;;;3.20;;
74375;SDS011;62812;55.188;61.302;2023-04-06T18:11:12;7.97;;;4.00;;
74375;SDS011;62812;55.188;61.302;2023-04-06T18:13:50;6.97;;;3.38;;
74375;SDS011;62812;55.188;61.302;2023-04-06T18:16:21;7.68;;;2.80;;
74375;SDS011;62812;55.188;61.302;2023-04-06T18:18:55;8.90;;;3.45;;
74375;SDS011;62812;55.188;61.302;2023-04-06T18:21:37;7.85;;;3.58;;
74375;SDS011;62812;55.188;61.302;2023-04-06T18:26:43;6.30;;;3.03;;
74375;SDS011;62812;55.188;61.302;2023-04-06T18:29:25;9.13;;;1.80;;
74375;SDS011;62812;55.188;61.302;2023-04-06T18:31:59;3.33;;;1.10;;
74375;SDS011;62812;55.188;61.302;2023-04-06T18:34:32;3.58;;;1.10;;
74375;SDS011;62812;55.188;61.302;2023-04-06T18:37:08;4.80;;;1.98;;
74375;SDS011;62812;55.188;61.302;2023-04-06T18:39:41;6.13;;;3.33;;
74375;SDS011;62812;55.188;61.302;2023-04-06T18:42:12;6.32;;;3.20;;
74375;SDS011;62812;55.188;61.302;2023-04-06T18:44:39;7.97;;;3.33;;
74375;SDS011;62812;55.188;61.302;2023-04-06T18:47:07;5.47;;;2.63;;
74375;SDS011;62812;55.188;61.302;2023-04-06T18:49:34;5.68;;;2.17;;
74375;SDS011;62812;55.188;61.302;2023-04-06T18:52:18;7.93;;;3.75;;
74375;SDS011;62812;55.188;61.302;2023-04-06T19:16:50;8.98;;;3.08;;
74375;SDS011;62812;55.188;61.302;2023-04-06T19:38:45;6.38;;;2.65;;
74375;SDS011;62812;55.188;61.302;2023-04-06T19:44:07;5.43;;;2.05;;
74375;SDS011;62812;55.188;61.302;2023-04-06T19:46:36;4.88;;;1.90;;
74375;SDS011;62812;55.188;61.302;2023-04-06T19:49:04;5.60;;;1.70;;
74375;SDS011;62812;55.188;61.302;2023-04-06T19:51:31;4.28;;;1.80;;
74375;SDS011;62812;55.188;61.302;2023-04-06T19:54:04;4.57;;;1.83;;
74375;SDS011;62812;55.188;61.302;2023-04-06T19:56:36;3.17;;;1.42;;
74375;SDS011;62812;55.188;61.302;2023-04-06T19:59:04;4.05;;;1.70;;
74375;SDS011;62812;55.188;61.302;2023-04-06T20:01:32;3.03;;;1.00;;
74375;SDS011;62812;55.188;61.302;2023-04-06T20:03:59;3.85;;;1.20;;
74375;SDS011;62812;55.188;61.302;2023-04-06T20:06:29;3.20;;;1.02;;
74375;SDS011;62812;55.188;61.302;2023-04-06T20:08:57;2.03;;;0.80;;
74375;SDS011;62812;55.188;61.302;2023-04-06T20:11:27;2.72;;;0.80;;
74375;SDS011;62812;55.188;61.302;2023-04-06T20:13:55;1.60;;;0.60;;
74375;SDS011;62812;55.188;61.302;2023-04-06T20:16:22;6.05;;;1.00;;
74375;SDS011;62812;55.188;61.302;2023-04-06T20:24:32;1.27;;;0.40;;
74375;SDS011;62812;55.188;61.302;2023-04-06T20:27:00;2.08;;;0.65;;
74375;SDS011;62812;55.188;61.302;2023-04-06T20:29:28;4.38;;;0.60;;
74375;SDS011;62812;55.188;61.302;2023-04-06T20:31:57;3.58;;;0.80;;
74375;SDS011;62812;55.188;61.302;2023-04-06T20:34:24;2.75;;;0.60;;
74375;SDS011;62812;55.188;61.302;2023-04-06T20:36:55;1.92;;;0.80;;
74375;SDS011;62812;55.188;61.302;2023-04-06T20:39:22;3.92;;;0.70;;
74375;SDS011;62812;55.188;61.302;2023-04-06T20:41:56;2.33;;;0.70;;
74375;SDS011;62812;55.188;61.302;2023-04-06T20:47:14;1.10;;;0.30;;
74375;SDS011;62812;55.188;61.302;2023-04-06T20:49:41;1.98;;;0.50;;
74375;SDS011;62812;55.188;61.302;2023-04-06T20:52:13;3.80;;;0.60;;
74375;SDS011;62812;55.188;61.302;2023-04-06T20:54:44;1.98;;;0.77;;
74375;SDS011;62812;55.188;61.302;2023-04-06T20:57:33;1.52;;;0.40;;
74375;SDS011;62812;55.188;61.302;2023-04-06T21:00:02;3.33;;;1.00;;
74375;SDS011;62812;55.188;61.302;2023-04-06T21:05:57;3.15;;;0.90;;
74375;SDS011;62812;55.188;61.302;2023-04-06T21:11:01;2.35;;;0.77;;
74375;SDS011;62812;55.188;61.302;2023-04-06T21:13:28;5.95;;;1.00;;
74375;SDS011;62812;55.188;61.302;2023-04-06T21:15:58;4.22;;;0.70;;
74375;SDS011;62812;55.188;61.302;2023-04-06T21:18:28;3.47;;;0.98;;
74375;SDS011;62812;55.188;61.302;2023-04-06T21:27:07;1.27;;;0.50;;
74375;SDS011;62812;55.188;61.302;2023-04-06T21:29:37;3.10;;;0.90;;
74375;SDS011;62812;55.188;61.302;2023-04-06T21:32:06;2.65;;;0.70;;
74375;SDS011;62812;55.188;61.302;2023-04-06T21:34:35;2.22;;;0.80;;
74375;SDS011;62812;55.188;61.302;2023-04-06T21:42:47;5.40;;;0.90;;
74375;SDS011;62812;55.188;61.302;2023-04-06T21:51:32;2.35;;;0.75;;
74375;SDS011;62812;55.188;61.302;2023-04-06T21:54:00;3.92;;;0.80;;
74375;SDS011;62812;55.188;61.302;2023-04-06T21:59:08;2.92;;;0.75;;
74375;SDS011;62812;55.188;61.302;2023-04-06T22:01:35;4.43;;;0.68;;
74375;SDS011;62812;55.188;61.302;2023-04-06T22:06:40;3.50;;;0.80;;
74375;SDS011;62812;55.188;61.302;2023-04-06T22:09:07;5.50;;;1.20;;
74375;SDS011;62812;55.188;61.302;2023-04-06T22:11:35;3.75;;;1.10;;
74375;SDS011;62812;55.188;61.302;2023-04-06T22:17:12;4.40;;;1.30;;
74375;SDS011;62812;55.188;61.302;2023-04-06T22:19:39;4.65;;;1.42;;
74375;SDS011;62812;55.188;61.302;2023-04-06T22:25:04;9.35;;;2.33;;
74375;SDS011;62812;55.188;61.302;2023-04-06T22:30:55;7.35;;;2.25;;
74375;SDS011;62812;55.188;61.302;2023-04-06T22:33:23;12.13;;;2.10;;
74375;SDS011;62812;55.188;61.302;2023-04-06T22:35:50;8.33;;;2.30;;
74375;SDS011;62812;55.188;61.302;2023-04-06T22:41:01;6.13;;;1.98;;
74375;SDS011;62812;55.188;61.302;2023-04-06T22:49:25;9.73;;;2.70;;
74375;SDS011;62812;55.188;61.302;2023-04-06T22:54:42;7.20;;;2.38;;
74375;SDS011;62812;55.188;61.302;2023-04-06T23:02:38;11.90;;;3.10;;
74375;SDS011;62812;55.188;61.302;2023-04-06T23:05:06;9.55;;;2.85;;
74375;SDS011;62812;55.188;61.302;2023-04-06T23:07:33;7.53;;;2.25;;
74375;SDS011;62812;55.188;61.302;2023-04-06T23:10:00;8.98;;;2.53;;
74375;SDS011;62812;55.188;61.302;2023-04-06T23:12:28;9.85;;;1.95;;
74375;SDS011;62812;55.188;61.302;2023-04-06T23:14:55;10.48;;;2.97;;
74375;SDS011;62812;55.188;61.302;2023-04-06T23:17:22;11.60;;;3.17;;
74375;SDS011;62812;55.188;61.302;2023-04-06T23:19:52;10.63;;;3.15;;
74375;SDS011;62812;55.188;61.302;2023-04-06T23:22:19;7.95;;;3.00;;
74375;SDS011;62812;55.188;61.302;2023-04-06T23:24:47;12.57;;;3.85;;
74375;SDS011;62812;55.188;61.302;2023-04-06T23:27:15;13.00;;;3.28;;
74375;SDS011;62812;55.188;61.302;2023-04-06T23:29:42;10.18;;;2.35;;
74375;SDS011;62812;55.188;61.302;2023-04-06T23:32:09;9.60;;;2.67;;
74375;SDS011;62812;55.188;61.302;2023-04-06T23:34:37;13.07;;;3.42;;
74375;SDS011;62812;55.188;61.302;2023-04-06T23:37:06;7.53;;;2.80;;
74375;SDS011;62812;55.188;61.302;2023-04-06T23:39:33;10.45;;;2.75;;
74375;SDS011;62812;55.188;61.302;2023-04-06T23:42:01;9.82;;;2.80;;
74375;SDS011;62812;55.188;61.302;2023-04-06T23:44:28;8.15;;;2.42;;
74375;SDS011;62812;55.188;61.302;2023-04-06T23:46:57;10.43;;;2.40;;
74375;SDS011;62812;55.188;61.302;2023-04-06T23:49:26;5.20;;;1.55;;
74375;SDS011;62812;55.188;61.302;2023-04-06T23:54:34;12.52;;;2.78;;
74375;SDS011;62812;55.188;61.302;2023-04-06T23:57:07;8.45;;;2.13;;
